createdAt,value
2019-01-08T00:02:27.811Z,79.83
2019-01-08T00:04:56.477Z,78.40
2019-01-08T00:07:25.172Z,80.45
2019-01-08T00:09:53.683Z,77.90
2019-01-08T00:12:22.142Z,76.09
2019-01-08T00:14:52.249Z,75.50
2019-01-08T00:17:20.870Z,76.05
2019-01-08T00:19:50.043Z,76.06
2019-01-08T00:22:18.548Z,75.34
2019-01-08T00:24:47.161Z,76.13
2019-01-08T00:27:15.771Z,76.70
2019-01-08T00:29:44.407Z,76.75
2019-01-08T00:32:12.824Z,75.43
2019-01-08T00:34:41.378Z,76.07
2019-01-08T00:37:10.066Z,75.74
2019-01-08T00:39:38.549Z,76.21
2019-01-08T00:42:07.065Z,76.53
2019-01-08T00:44:35.763Z,77.87
2019-01-08T00:47:04.333Z,75.36
2019-01-08T00:49:32.963Z,74.10
2019-01-08T00:52:01.578Z,74.35
2019-01-08T00:54:30.194Z,74.05
2019-01-08T00:56:58.800Z,74.45
2019-01-08T00:59:27.339Z,74.49
2019-01-08T01:01:55.925Z,74.84
2019-01-08T01:04:24.564Z,75.01
2019-01-08T01:06:53.246Z,75.90
2019-01-08T01:09:21.879Z,74.50
2019-01-08T01:11:50.633Z,75.02
2019-01-08T01:14:19.161Z,76.23
2019-01-08T01:16:47.689Z,76.32
2019-01-08T01:19:16.289Z,80.01
2019-01-08T01:21:44.878Z,74.80
2019-01-08T01:24:13.433Z,73.23
2019-01-08T01:26:42.138Z,73.44
2019-01-08T01:29:10.609Z,75.37
2019-01-08T01:31:39.153Z,75.37
2019-01-08T01:34:07.758Z,73.59
2019-01-08T01:36:36.448Z,74.96
2019-01-08T01:39:06.440Z,73.91
2019-01-08T01:41:35.053Z,73.86
2019-01-08T01:44:03.624Z,73.79
2019-01-08T01:46:32.156Z,74.01
2019-01-08T01:49:00.776Z,74.61
2019-01-08T01:51:29.417Z,74.64
2019-01-08T01:53:57.962Z,75.45
2019-01-08T01:56:26.531Z,75.92
2019-01-08T01:58:55.059Z,72.57
2019-01-08T02:01:23.680Z,73.41
2019-01-08T02:03:52.270Z,73.63
2019-01-08T02:06:21.331Z,73.32
2019-01-08T02:08:49.961Z,73.69
2019-01-08T02:11:18.518Z,73.28
2019-01-08T02:13:47.071Z,73.65
2019-01-08T02:16:15.650Z,73.81
2019-01-08T02:18:44.351Z,73.40
2019-01-08T02:21:12.978Z,73.59
2019-01-08T02:23:41.485Z,72.67
2019-01-08T02:26:10.002Z,74.06
2019-01-08T02:28:38.564Z,74.85
2019-01-08T02:31:07.113Z,76.08
2019-01-08T02:33:35.731Z,72.97
2019-01-08T02:36:04.403Z,71.77
2019-01-08T02:38:33.017Z,72.42
2019-01-08T02:41:01.538Z,73.11
2019-01-08T02:43:30.057Z,73.94
2019-01-08T02:45:58.622Z,72.51
2019-01-08T02:48:27.138Z,72.50
2019-01-08T02:50:55.776Z,73.25
2019-01-08T02:53:24.327Z,73.81
2019-01-08T02:55:52.954Z,74.03
2019-01-08T02:58:22.077Z,72.99
2019-01-08T03:00:50.890Z,73.79
2019-01-08T03:03:19.378Z,74.12
2019-01-08T03:05:47.883Z,78.55
2019-01-08T03:08:16.389Z,74.35
2019-01-08T03:10:44.932Z,72.46
2019-01-08T03:13:13.486Z,72.52
2019-01-08T03:15:42.007Z,74.08
2019-01-08T03:18:10.564Z,74.07
2019-01-08T03:20:39.172Z,72.19
2019-01-08T03:23:07.865Z,72.93
2019-01-08T03:25:36.415Z,73.28
2019-01-08T03:28:05.093Z,74.36
2019-01-08T03:30:33.627Z,73.46
2019-01-08T03:33:02.156Z,73.74
2019-01-08T03:35:30.704Z,73.90
2019-01-08T03:37:59.418Z,74.27
2019-01-08T03:40:27.947Z,76.16
2019-01-08T03:42:56.475Z,76.08
2019-01-08T03:45:24.989Z,73.21
2019-01-08T03:47:53.583Z,73.78
2019-01-08T03:50:23.040Z,73.17
2019-01-08T03:52:51.558Z,72.99
2019-01-08T03:55:20.177Z,73.25
2019-01-08T03:57:48.684Z,72.91
2019-01-08T04:00:17.273Z,72.95
2019-01-08T04:02:45.750Z,72.76
2019-01-08T04:05:14.248Z,72.40
2019-01-08T04:07:42.870Z,73.11
2019-01-08T04:10:11.409Z,73.21
2019-01-08T04:12:39.938Z,73.19
2019-01-08T04:15:08.525Z,74.02
2019-01-08T04:17:37.065Z,76.58
2019-01-08T04:20:05.857Z,71.99
2019-01-08T04:22:34.389Z,73.01
2019-01-08T04:25:02.983Z,71.51
2019-01-08T04:27:31.663Z,72.02
2019-01-08T04:30:00.368Z,71.58
2019-01-08T04:32:28.974Z,72.20
2019-01-08T04:34:57.524Z,72.37
2019-01-08T04:37:26.107Z,72.95
2019-01-08T04:39:54.702Z,72.91
2019-01-08T04:42:23.494Z,73.60
2019-01-08T04:44:51.996Z,72.98
2019-01-08T04:47:20.622Z,72.79
2019-01-08T04:49:49.160Z,72.99
2019-01-08T04:52:17.679Z,75.55
2019-01-08T04:54:46.311Z,72.73
2019-01-08T04:57:14.906Z,72.92
2019-01-08T04:59:43.438Z,71.14
2019-01-08T05:02:11.996Z,72.01
2019-01-08T05:04:40.501Z,71.51
2019-01-08T05:07:09.032Z,71.88
2019-01-08T05:09:37.509Z,72.67
2019-01-08T05:12:05.952Z,73.34
2019-01-08T05:14:34.447Z,72.00
2019-01-08T05:17:03.041Z,72.37
2019-01-08T05:19:31.564Z,72.29
2019-01-08T05:22:00.110Z,72.31
2019-01-08T05:24:28.652Z,72.73
2019-01-08T05:26:57.270Z,77.72
2019-01-08T05:29:25.827Z,75.22
2019-01-08T05:31:54.278Z,71.89
2019-01-08T05:34:22.861Z,72.42
2019-01-08T05:36:51.318Z,73.30
2019-01-08T05:39:19.818Z,73.17
2019-01-08T05:41:48.321Z,72.26
2019-01-08T05:44:16.950Z,73.42
2019-01-08T05:46:45.407Z,72.76
2019-01-08T05:49:13.932Z,72.49
2019-01-08T05:51:42.561Z,73.36
2019-01-08T05:54:11.180Z,73.06
2019-01-08T05:56:39.704Z,73.50
2019-01-08T05:59:08.257Z,74.02
2019-01-08T06:01:36.985Z,74.60
2019-01-08T06:04:05.543Z,76.81
2019-01-08T06:06:34.193Z,72.58
2019-01-08T06:09:02.796Z,72.19
2019-01-08T06:11:31.411Z,71.04
2019-01-08T06:13:59.870Z,70.63
2019-01-08T06:16:28.438Z,71.63
2019-01-08T06:18:57.090Z,71.10
2019-01-08T06:21:25.540Z,71.57
2019-01-08T06:23:55.197Z,72.11
2019-01-08T06:26:23.628Z,71.68
2019-01-08T06:28:52.195Z,71.75
2019-01-08T06:31:22.631Z,71.42
2019-01-08T06:33:51.043Z,71.35
2019-01-08T06:36:19.599Z,72.62
2019-01-08T06:38:48.030Z,78.17
2019-01-08T06:41:16.660Z,74.26
2019-01-08T06:43:45.236Z,72.49
2019-01-08T06:46:13.771Z,72.66
2019-01-08T06:48:42.279Z,73.74
2019-01-08T06:51:10.837Z,73.83
2019-01-08T06:53:39.367Z,74.82
2019-01-08T06:56:07.884Z,74.02
2019-01-08T06:58:36.552Z,74.07
2019-01-08T07:01:05.133Z,73.26
2019-01-08T07:03:33.765Z,73.27
2019-01-08T07:06:02.397Z,72.68
2019-01-08T07:08:30.963Z,72.98
2019-01-08T07:10:59.545Z,73.21
2019-01-08T07:13:28.071Z,73.98
2019-01-08T07:15:56.687Z,73.42
2019-01-08T07:18:25.729Z,70.99
2019-01-08T07:20:54.691Z,71.59
2019-01-08T07:23:23.345Z,71.74
2019-01-08T07:25:51.859Z,71.65
2019-01-08T07:28:20.495Z,72.11
2019-01-08T07:30:49.172Z,72.60
2019-01-08T07:33:17.775Z,73.00
2019-01-08T07:35:46.370Z,72.42
2019-01-08T07:38:15.026Z,72.34
2019-01-08T07:40:43.613Z,72.83
2019-01-08T07:43:12.167Z,72.44
2019-01-08T07:45:40.682Z,72.72
2019-01-08T07:48:09.246Z,73.19
2019-01-08T07:50:37.822Z,76.00
2019-01-08T07:53:06.412Z,71.79
2019-01-08T07:55:35.052Z,71.66
2019-01-08T07:58:03.707Z,72.18
2019-01-08T08:00:32.182Z,71.85
2019-01-08T08:03:00.764Z,72.69
2019-01-08T08:05:29.299Z,72.85
2019-01-08T08:07:57.868Z,72.63
2019-01-08T08:10:26.429Z,72.92
2019-01-08T08:12:54.955Z,72.95
2019-01-08T08:15:23.551Z,72.63
2019-01-08T08:17:52.139Z,71.70
2019-01-08T08:20:20.672Z,71.81
2019-01-08T08:22:49.295Z,72.74
2019-01-08T08:25:17.848Z,77.79
2019-01-08T08:27:46.454Z,73.24
2019-01-08T08:30:15.225Z,70.56
2019-01-08T08:32:43.727Z,70.49
2019-01-08T08:35:12.617Z,70.43
2019-01-08T08:37:41.231Z,71.09
2019-01-08T08:40:09.798Z,71.54
2019-01-08T08:42:38.382Z,72.30
2019-01-08T08:45:08.592Z,71.62
2019-01-08T08:47:37.267Z,71.72
2019-01-08T08:50:07.047Z,71.35
2019-01-08T08:52:35.608Z,72.26
2019-01-08T08:55:04.430Z,72.11
2019-01-08T08:57:32.966Z,72.86
2019-01-08T09:00:01.607Z,73.99
2019-01-08T09:02:30.275Z,73.96
2019-01-08T09:04:58.902Z,71.76
2019-01-08T09:07:27.461Z,72.07
2019-01-08T09:09:57.045Z,70.85
2019-01-08T09:12:25.756Z,71.58
2019-01-08T09:14:54.278Z,71.06
2019-01-08T09:17:22.847Z,71.64
2019-01-08T09:19:51.387Z,71.63
2019-01-08T09:22:19.836Z,71.47
2019-01-08T09:24:48.372Z,71.68
2019-01-08T09:27:16.893Z,70.45
2019-01-08T09:29:45.547Z,72.18
2019-01-08T09:32:14.223Z,72.57
2019-01-08T09:34:42.675Z,73.84
2019-01-08T09:37:11.300Z,77.42
2019-01-08T09:39:39.813Z,73.15
2019-01-08T09:42:08.466Z,72.28
2019-01-08T09:44:37.102Z,73.70
2019-01-08T09:47:05.717Z,73.75
2019-01-08T09:49:34.327Z,73.48
2019-01-08T09:52:02.911Z,73.46
2019-01-08T09:54:31.501Z,74.12
2019-01-08T09:57:00.045Z,73.39
2019-01-08T09:59:28.685Z,73.76
2019-01-08T10:01:57.529Z,73.19
2019-01-08T10:04:26.068Z,73.95
2019-01-08T10:06:54.698Z,73.85
2019-01-08T10:09:23.385Z,73.99
2019-01-08T10:11:51.972Z,77.41
2019-01-08T10:14:20.614Z,73.74
2019-01-08T10:16:49.224Z,72.47
2019-01-08T10:19:17.813Z,71.86
2019-01-08T10:21:46.426Z,72.13
2019-01-08T10:24:14.987Z,72.15
2019-01-08T10:26:43.670Z,72.56
2019-01-08T10:29:12.164Z,74.05
2019-01-08T10:31:40.717Z,73.37
2019-01-08T10:34:09.320Z,72.65
2019-01-08T10:36:37.834Z,73.17
2019-01-08T10:39:07.429Z,73.39
2019-01-08T10:41:36.047Z,72.60
2019-01-08T10:44:04.698Z,73.39
2019-01-08T10:46:37.447Z,77.52
2019-01-08T10:49:03.439Z,76.48
2019-01-08T10:51:31.934Z,74.18
2019-01-08T10:54:00.424Z,73.13
2019-01-08T10:56:29.052Z,72.56
2019-01-08T10:58:58.052Z,73.18
2019-01-08T11:01:26.608Z,73.43
2019-01-08T11:03:55.167Z,73.65
2019-01-08T11:06:23.699Z,74.28
2019-01-08T11:08:52.327Z,74.44
2019-01-08T11:11:20.953Z,75.16
2019-01-08T11:13:49.629Z,75.08
2019-01-08T11:16:18.242Z,74.55
2019-01-08T11:18:47.839Z,74.38
2019-01-08T11:21:16.377Z,74.30
2019-01-08T11:23:44.900Z,77.38
2019-01-08T11:26:13.450Z,74.32
2019-01-08T11:28:43.172Z,73.54
2019-01-08T11:31:11.936Z,72.01
2019-01-08T11:33:40.619Z,73.06
2019-01-08T11:36:09.140Z,71.62
2019-01-08T11:38:37.687Z,71.49
2019-01-08T11:41:06.290Z,71.36
2019-01-08T11:43:34.844Z,71.28
2019-01-08T11:46:03.426Z,71.17
2019-01-08T11:48:32.033Z,71.39
2019-01-08T11:51:00.705Z,72.03
2019-01-08T11:53:29.338Z,71.67
2019-01-08T11:55:59.076Z,71.34
2019-01-08T11:58:28.735Z,75.07
2019-01-08T12:00:57.335Z,71.16
2019-01-08T12:03:26.032Z,69.36
2019-01-08T12:05:54.588Z,70.03
2019-01-08T12:08:23.192Z,69.00
2019-01-08T12:10:51.751Z,69.38
2019-01-08T12:13:20.370Z,69.32
2019-01-08T12:15:49.025Z,70.14
2019-01-08T12:18:17.591Z,70.05
2019-01-08T12:20:46.181Z,69.95
2019-01-08T12:23:14.759Z,69.73
2019-01-08T12:25:43.300Z,69.37
2019-01-08T12:28:11.878Z,69.38
2019-01-08T12:30:40.506Z,69.62
2019-01-08T12:33:09.035Z,71.00
2019-01-08T12:35:37.560Z,70.48
2019-01-08T12:38:06.201Z,67.53
2019-01-08T12:40:34.716Z,67.90
2019-01-08T12:43:03.236Z,67.14
2019-01-08T12:45:31.738Z,67.48
2019-01-08T12:48:00.261Z,67.20
2019-01-08T12:50:29.369Z,65.97
2019-01-08T12:52:57.961Z,66.08
2019-01-08T12:55:26.590Z,67.09
2019-01-08T12:57:55.192Z,66.04
2019-01-08T13:00:23.834Z,66.79
2019-01-08T13:02:52.356Z,65.37
2019-01-08T13:05:20.990Z,66.24
2019-01-08T13:07:49.538Z,64.73
2019-01-08T13:11:13.602Z,67.63
2019-01-08T13:13:42.121Z,66.61
2019-01-08T13:16:10.733Z,69.34
2019-01-08T13:18:39.276Z,69.65
2019-01-08T13:21:07.879Z,69.74
2019-01-08T13:23:36.329Z,71.25
2019-01-08T13:26:04.961Z,71.11
2019-01-08T13:28:33.581Z,70.67
2019-01-08T13:31:02.149Z,70.09
2019-01-08T13:33:30.602Z,69.83
2019-01-08T13:35:59.168Z,69.75
2019-01-08T13:38:27.750Z,69.59
2019-01-08T13:40:56.862Z,68.80
2019-01-08T13:43:25.390Z,68.38
2019-01-08T13:45:53.958Z,71.84
2019-01-08T13:48:22.581Z,66.90
2019-01-08T13:50:51.218Z,67.13
2019-01-08T13:53:19.810Z,67.61
2019-01-08T13:55:48.342Z,67.02
2019-01-08T13:58:17.049Z,68.19
2019-01-08T14:00:45.609Z,68.58
2019-01-08T14:03:14.126Z,68.02
2019-01-08T14:05:43.341Z,68.43
2019-01-08T14:08:11.985Z,68.69
2019-01-08T14:10:40.502Z,68.69
2019-01-08T14:13:08.969Z,69.44
2019-01-08T14:15:37.620Z,69.25
2019-01-08T14:18:06.230Z,69.01
2019-01-08T14:20:34.844Z,69.43
2019-01-08T14:23:03.353Z,68.09
2019-01-08T14:25:31.944Z,68.39
2019-01-08T14:28:00.595Z,67.32
2019-01-08T14:30:29.550Z,67.31
2019-01-08T14:32:58.202Z,68.85
2019-01-08T14:35:26.767Z,70.00
2019-01-08T14:37:55.319Z,69.42
2019-01-08T14:40:23.865Z,69.21
2019-01-08T14:42:52.585Z,69.91
2019-01-08T14:45:21.188Z,69.58
2019-01-08T14:47:49.824Z,69.70
2019-01-08T14:50:18.505Z,69.57
2019-01-08T14:52:47.062Z,69.03
2019-01-08T14:55:15.664Z,69.06
2019-01-08T14:57:44.251Z,69.48
2019-01-08T15:00:13.075Z,67.25
2019-01-08T15:02:49.206Z,67.63
2019-01-08T15:05:11.965Z,67.04
2019-01-08T15:07:40.535Z,67.15
2019-01-08T15:10:09.330Z,66.74
2019-01-08T15:12:37.944Z,68.45
2019-01-08T15:15:06.993Z,68.09
2019-01-08T15:17:35.572Z,68.13
2019-01-08T15:20:05.151Z,68.12
2019-01-08T15:22:33.844Z,68.01
2019-01-08T15:25:02.480Z,68.28
2019-01-08T15:27:31.068Z,68.44
2019-01-08T15:30:00.170Z,68.66
2019-01-08T15:32:28.818Z,72.53
2019-01-08T15:34:57.433Z,68.43
2019-01-08T15:37:26.009Z,67.26
2019-01-08T15:39:54.614Z,66.59
2019-01-08T15:42:23.195Z,66.25
2019-01-08T15:44:51.836Z,65.91
2019-01-08T15:47:20.356Z,66.09
2019-01-08T15:49:48.973Z,66.97
2019-01-08T15:52:17.526Z,65.39
2019-01-08T15:54:46.159Z,66.43
2019-01-08T15:57:14.591Z,66.14
2019-01-08T15:59:43.210Z,66.25
2019-01-08T16:02:11.855Z,66.18
2019-01-08T16:04:40.480Z,65.83
2019-01-08T16:07:09.069Z,67.28
2019-01-08T16:09:37.699Z,65.86
2019-01-08T16:12:06.294Z,65.09
2019-01-08T16:14:34.911Z,65.38
2019-01-08T16:17:03.533Z,65.30
2019-01-08T16:19:32.134Z,65.15
2019-01-08T16:22:00.869Z,64.79
2019-01-08T16:24:29.499Z,65.29
2019-01-08T16:26:58.094Z,66.29
2019-01-08T16:29:26.732Z,65.32
2019-01-08T16:31:55.500Z,65.15
2019-01-08T16:34:24.156Z,65.33
2019-01-08T16:36:52.652Z,65.80
2019-01-08T16:39:21.323Z,65.53
2019-01-08T16:41:50.108Z,67.76
2019-01-08T16:44:18.740Z,68.69
2019-01-08T16:46:47.441Z,65.16
2019-01-08T16:49:16.140Z,63.96
2019-01-08T16:51:44.662Z,64.47
2019-01-08T16:54:13.237Z,64.82
2019-01-08T16:56:41.818Z,64.56
2019-01-08T16:59:10.399Z,64.89
2019-01-08T17:01:38.977Z,64.04
2019-01-08T17:04:07.602Z,64.59
2019-01-08T17:06:36.216Z,64.21
2019-01-08T17:09:06.215Z,64.60
2019-01-08T17:11:34.731Z,64.87
2019-01-08T17:14:03.405Z,65.41
2019-01-08T17:16:31.943Z,65.42
2019-01-08T17:19:01.745Z,67.11
2019-01-08T17:21:30.440Z,64.30
2019-01-08T17:23:59.029Z,63.87
2019-01-08T17:26:27.746Z,63.61
2019-01-08T17:28:56.295Z,66.20
2019-01-08T17:31:24.962Z,67.07
2019-01-08T17:33:53.582Z,67.19
2019-01-08T17:36:22.285Z,68.70
2019-01-08T17:38:50.829Z,70.29
2019-01-08T17:41:19.455Z,70.81
2019-01-08T17:43:48.167Z,71.83
2019-01-08T17:46:16.774Z,72.94
2019-01-08T17:48:45.357Z,73.00
2019-01-08T17:51:14.073Z,73.22
2019-01-08T17:53:42.887Z,73.27
2019-01-08T17:56:11.493Z,73.09
2019-01-08T17:58:42.172Z,72.22
2019-01-08T18:01:17.449Z,71.58
2019-01-08T18:03:47.074Z,71.08
2019-01-08T18:06:15.739Z,71.44
2019-01-08T18:08:44.291Z,71.35
2019-01-08T18:11:12.949Z,71.59
2019-01-08T18:13:41.524Z,71.93
2019-01-08T18:16:10.135Z,70.96
2019-01-08T18:18:38.746Z,71.22
2019-01-08T18:21:07.369Z,69.57
2019-01-08T18:23:35.882Z,69.97
2019-01-08T18:26:04.514Z,70.34
2019-01-08T18:28:33.099Z,70.25
2019-01-08T18:31:02.824Z,72.07
2019-01-08T18:33:31.457Z,69.39
2019-01-08T18:36:00.091Z,67.87
2019-01-08T18:38:28.803Z,68.04
2019-01-08T18:40:57.518Z,67.64
2019-01-08T18:43:26.164Z,67.69
2019-01-08T18:45:54.683Z,68.40
2019-01-08T18:48:23.598Z,68.65
2019-01-08T18:50:52.176Z,68.17
2019-01-08T18:53:20.815Z,68.23
2019-01-08T18:55:49.453Z,67.52
2019-01-08T18:58:18.052Z,68.08
2019-01-08T19:00:46.654Z,68.57
2019-01-08T19:03:15.265Z,69.87
2019-01-08T19:05:43.792Z,73.03
2019-01-08T19:08:12.401Z,69.20
2019-01-08T19:10:41.016Z,69.74
2019-01-08T19:13:09.689Z,69.74
2019-01-08T19:15:38.352Z,69.82
2019-01-08T19:18:06.944Z,70.48
2019-01-08T19:20:35.516Z,69.91
2019-01-08T19:23:04.229Z,70.47
2019-01-08T19:25:33.634Z,70.35
2019-01-08T19:28:02.218Z,71.25
2019-01-08T19:30:30.901Z,70.82
2019-01-08T19:32:59.552Z,70.80
2019-01-08T19:35:31.740Z,69.90
2019-01-08T19:37:58.474Z,70.88
2019-01-08T19:40:27.211Z,71.31
2019-01-08T19:42:55.855Z,72.05
2019-01-08T19:45:24.534Z,70.38
2019-01-08T19:47:53.204Z,70.38
2019-01-08T19:50:21.832Z,70.08
2019-01-08T19:52:50.534Z,70.08
2019-01-08T19:55:19.128Z,70.76
2019-01-08T19:57:47.759Z,70.22
2019-01-08T20:00:16.390Z,70.02
2019-01-08T20:02:45.117Z,68.72
2019-01-08T20:05:13.686Z,69.51
2019-01-08T20:07:42.461Z,68.42
2019-01-08T20:10:11.167Z,69.44
2019-01-08T20:12:39.673Z,69.13
2019-01-08T20:15:08.999Z,68.61
2019-01-08T20:17:37.590Z,71.25
2019-01-08T20:20:07.175Z,66.98
2019-01-08T20:22:35.738Z,67.84
2019-01-08T20:25:04.923Z,68.12
2019-01-08T20:27:34.539Z,67.22
2019-01-08T20:30:03.239Z,66.86
2019-01-08T20:32:31.839Z,67.97
2019-01-08T20:35:00.415Z,67.92
2019-01-08T20:37:29.066Z,68.54
2019-01-08T20:39:57.546Z,67.98
2019-01-08T20:42:26.265Z,67.93
2019-01-08T20:44:54.905Z,68.65
2019-01-08T20:47:23.534Z,69.27
2019-01-08T20:49:52.233Z,69.57
2019-01-08T20:52:20.913Z,70.47
2019-01-08T20:58:55.554Z,69.66
2019-01-08T21:01:24.231Z,68.99
2019-01-08T21:03:52.782Z,69.11
2019-01-08T21:06:21.346Z,69.72
2019-01-08T21:08:49.993Z,69.29
2019-01-08T21:11:18.515Z,69.79
2019-01-08T21:13:46.993Z,69.51
2019-01-08T21:16:15.541Z,70.55
2019-01-08T21:18:44.075Z,70.50
2019-01-08T21:21:12.620Z,69.63
2019-01-08T21:23:41.088Z,69.72
2019-01-08T21:26:09.758Z,69.84
2019-01-08T21:28:38.259Z,72.47
2019-01-08T21:31:06.824Z,69.54
2019-01-08T21:33:35.908Z,68.29
2019-01-08T21:36:04.480Z,68.29
2019-01-08T21:38:33.115Z,69.28
2019-01-08T21:41:36.014Z,70.58
2019-01-08T21:44:04.624Z,70.03
2019-01-08T21:46:33.258Z,71.09
2019-01-08T21:49:01.827Z,71.55
2019-01-08T21:51:30.415Z,72.30
2019-01-08T21:53:58.909Z,73.00
2019-01-08T21:56:27.556Z,72.79
2019-01-08T21:58:56.083Z,73.06
2019-01-08T22:01:25.144Z,73.26
2019-01-08T22:03:53.708Z,75.13
2019-01-08T22:13:36.891Z,72.48
2019-01-08T22:16:05.427Z,73.34
2019-01-08T22:18:33.988Z,72.46
2019-01-08T22:21:02.634Z,72.71
2019-01-08T22:23:31.064Z,73.01
2019-01-08T22:25:59.568Z,73.12
2019-01-08T22:28:28.084Z,74.05
2019-01-08T22:30:57.334Z,72.85
2019-01-08T22:33:25.969Z,72.65
2019-01-08T22:35:54.510Z,73.30
2019-01-08T22:38:22.993Z,76.25
2019-01-08T22:40:52.480Z,74.30
2019-01-08T22:43:21.119Z,72.11
2019-01-08T22:45:50.248Z,71.17
2019-01-08T22:48:19.029Z,71.60
2019-01-08T22:50:47.645Z,71.65
2019-01-08T22:53:16.168Z,71.25
2019-01-08T22:55:44.734Z,72.31
2019-01-08T22:58:13.294Z,72.41
2019-01-08T23:00:50.164Z,71.16
2019-01-08T23:03:18.873Z,71.60
2019-01-08T23:05:47.695Z,71.88
2019-01-08T23:08:16.983Z,72.58
2019-01-08T23:10:45.829Z,73.48
2019-01-08T23:13:15.242Z,73.71
2019-01-08T23:15:43.831Z,79.40
2019-01-08T23:18:12.279Z,75.05
2019-01-08T23:20:40.698Z,73.13
2019-01-08T23:23:09.296Z,72.51
2019-01-08T23:25:37.787Z,72.73
2019-01-08T23:28:06.416Z,73.23
2019-01-08T23:30:34.995Z,73.24
2019-01-08T23:33:03.547Z,73.82
2019-01-08T23:35:32.117Z,73.57
2019-01-08T23:38:00.734Z,73.74
2019-01-08T23:40:29.618Z,73.59
2019-01-08T23:42:58.248Z,73.68
2019-01-08T23:45:26.774Z,74.43
2019-01-08T23:47:55.344Z,74.12
2019-01-08T23:50:23.937Z,74.64
2019-01-08T23:53:09.593Z,75.54
2019-01-08T23:55:43.938Z,73.06
2019-01-08T23:58:15.438Z,73.10
